sensor_id;sensor_type;location;lat;lon;timestamp;pressure;altitude;pressure_sealevel;temperature;humidity
19447;BME280;9862;49.462;11.054;2022-10-16T00:00:56;97855.41;;;17.96;100.00
19447;BME280;9862;49.462;11.054;2022-10-16T00:03:43;97856.22;;;17.96;100.00
19447;BME280;9862;49.462;11.054;2022-10-16T00:06:29;97853.28;;;17.98;100.00
19447;BME280;9862;49.462;11.054;2022-10-16T00:09:14;97855.41;;;17.96;100.00
19447;BME280;9862;49.462;11.054;2022-10-16T00:12:00;97870.00;;;18.05;100.00
19447;BME280;9862;49.462;11.054;2022-10-16T00:14:47;97875.91;;;18.02;100.00
19447;BME280;9862;49.462;11.054;2022-10-16T00:17:34;97881.28;;;18.02;100.00
19447;BME280;9862;49.462;11.054;2022-10-16T00:20:19;97872.13;;;18.03;100.00
19447;BME280;9862;49.462;11.054;2022-10-16T00:23:04;97875.09;;;18.01;100.00
19447;BME280;9862;49.462;11.054;2022-10-16T00:25:57;97865.94;;;18.02;100.00
19447;BME280;9862;49.462;11.054;2022-10-16T00:28:42;97879.44;;;18.08;100.00
19447;BME280;9862;49.462;11.054;2022-10-16T00:31:29;97880.78;;;18.05;100.00
19447;BME280;9862;49.462;11.054;2022-10-16T00:34:15;97879.66;;;18.01;100.00
19447;BME280;9862;49.462;11.054;2022-10-16T00:37:01;97882.09;;;18.02;100.00
19447;BME280;9862;49.462;11.054;2022-10-16T00:39:46;97880.47;;;18.01;100.00
19447;BME280;9862;49.462;11.054;2022-10-16T00:42:31;97881.81;;;17.99;100.00
19447;BME280;9862;49.462;11.054;2022-10-16T00:45:16;97882.09;;;18.02;100.00
19447;BME280;9862;49.462;11.054;2022-10-16T00:48:02;97878.09;;;18.05;100.00
19447;BME280;9862;49.462;11.054;2022-10-16T00:50:49;97870.56;;;18.07;100.00
19447;BME280;9862;49.462;11.054;2022-10-16T00:53:35;97875.91;;;18.02;100.00
19447;BME280;9862;49.462;11.054;2022-10-16T00:56:20;97875.91;;;18.02;100.00
19447;BME280;9862;49.462;11.054;2022-10-16T00:59:08;97878.63;;;18.07;100.00
19447;BME280;9862;49.462;11.054;2022-10-16T01:01:56;97882.91;;;18.03;100.00
19447;BME280;9862;49.462;11.054;2022-10-16T01:04:44;97887.53;;;18.08;100.00
19447;BME280;9862;49.462;11.054;2022-10-16T01:07:38;97894.00;;;18.07;100.00
19447;BME280;9862;49.462;11.054;2022-10-16T01:10:31;97884.03;;;18.07;100.00
19447;BME280;9862;49.462;11.054;2022-10-16T01:13:24;97887.78;;;18.06;100.00
19447;BME280;9862;49.462;11.054;2022-10-16T01:16:13;97880.81;;;18.10;100.00
19447;BME280;9862;49.462;11.054;2022-10-16T01:19:04;97886.66;;;18.02;100.00
19447;BME280;9862;49.462;11.054;2022-10-16T01:21:53;97892.06;;;18.02;100.00
19447;BME280;9862;49.462;11.054;2022-10-16T01:24:43;97882.63;;;17.99;100.00
19447;BME280;9862;49.462;11.054;2022-10-16T01:27:34;97882.88;;;17.98;100.00
19447;BME280;9862;49.462;11.054;2022-10-16T01:30:23;97884.50;;;17.99;100.00
19447;BME280;9862;49.462;11.054;2022-10-16T01:33:17;97876.97;;;17.96;100.00
19447;BME280;9862;49.462;11.054;2022-10-16T01:36:09;97882.34;;;17.96;100.00
19447;BME280;9862;49.462;11.054;2022-10-16T01:38:59;97888.53;;;17.96;100.00
19447;BME280;9862;49.462;11.054;2022-10-16T01:41:49;97881.81;;;17.99;100.00
19447;BME280;9862;49.462;11.054;2022-10-16T01:44:39;97902.03;;;18.01;100.00
19447;BME280;9862;49.462;11.054;2022-10-16T01:47:27;97903.34;;;17.99;100.00
19447;BME280;9862;49.462;11.054;2022-10-16T01:50:16;97898.78;;;17.99;100.00
19447;BME280;9862;49.462;11.054;2022-10-16T01:53:03;97907.66;;;18.00;100.00
19447;BME280;9862;49.462;11.054;2022-10-16T01:55:52;97909.28;;;17.96;100.00
19447;BME280;9862;49.462;11.054;2022-10-16T01:58:42;97915.47;;;17.96;100.00
19447;BME280;9862;49.462;11.054;2022-10-16T02:01:33;97918.72;;;17.98;100.00
19447;BME280;9862;49.462;11.054;2022-10-16T02:04:26;97911.97;;;17.96;100.00
19447;BME280;9862;49.462;11.054;2022-10-16T02:07:12;97918.38;;;17.95;100.00
19447;BME280;9862;49.462;11.054;2022-10-16T02:09:59;97922.16;;;17.94;100.00
19447;BME280;9862;49.462;11.054;2022-10-16T02:12:49;97928.06;;;17.91;100.00
19447;BME280;9862;49.462;11.054;2022-10-16T02:15:35;97925.91;;;17.88;100.00
19447;BME280;9862;49.462;11.054;2022-10-16T02:18:22;97913.53;;;17.92;100.00
19447;BME280;9862;49.462;11.054;2022-10-16T02:21:14;97921.00;;;17.85;100.00
19447;BME280;9862;49.462;11.054;2022-10-16T02:24:05;97921.81;;;17.80;100.00
19447;BME280;9862;49.462;11.054;2022-10-16T02:27:00;97914.00;;;17.79;100.00
19447;BME280;9862;49.462;11.054;2022-10-16T02:29:52;97915.88;;;17.78;100.00
19447;BME280;9862;49.462;11.054;2022-10-16T02:32:45;97910.78;;;17.82;100.00
19447;BME280;9862;49.462;11.054;2022-10-16T02:35:33;97911.31;;;17.84;100.00
19447;BME280;9862;49.462;11.054;2022-10-16T02:38:20;97914.00;;;17.84;100.00
19447;BME280;9862;49.462;11.054;2022-10-16T02:41:06;97915.09;;;17.83;100.00
19447;BME280;9862;49.462;11.054;2022-10-16T02:43:51;97918.84;;;17.82;100.00
19447;BME280;9862;49.462;11.054;2022-10-16T02:46:38;97914.28;;;17.82;100.00
19447;BME280;9862;49.462;11.054;2022-10-16T02:49:23;97914.00;;;17.84;100.00
19447;BME280;9862;49.462;11.054;2022-10-16T02:52:10;97900.06;;;17.87;100.00
19447;BME280;9862;49.462;11.054;2022-10-16T02:54:55;97904.91;;;17.90;100.00
19447;BME280;9862;49.462;11.054;2022-10-16T02:57:40;97912.94;;;17.85;100.00
19447;BME280;9862;49.462;11.054;2022-10-16T03:00:25;97909.69;;;17.83;100.00
19447;BME280;9862;49.462;11.054;2022-10-16T03:03:11;97917.75;;;17.78;100.00
19447;BME280;9862;49.462;11.054;2022-10-16T03:05:57;97924.22;;;17.77;100.00
19447;BME280;9862;49.462;11.054;2022-10-16T03:08:43;97908.28;;;17.75;100.00
19447;BME280;9862;49.462;11.054;2022-10-16T03:11:28;97907.47;;;17.74;100.00
19447;BME280;9862;49.462;11.054;2022-10-16T03:14:14;97910.75;;;17.77;100.00
19447;BME280;9862;49.462;11.054;2022-10-16T03:16:59;97912.94;;;17.85;100.00
19447;BME280;9862;49.462;11.054;2022-10-16T03:19:45;97912.94;;;17.85;100.00
19447;BME280;9862;49.462;11.054;2022-10-16T03:22:30;97912.69;;;17.86;100.00
19447;BME280;9862;49.462;11.054;2022-10-16T03:25:16;97914.06;;;17.89;100.00
19447;BME280;9862;49.462;11.054;2022-10-16T03:28:02;97908.16;;;17.92;100.00
19447;BME280;9862;49.462;11.054;2022-10-16T03:30:47;97909.75;;;17.93;100.00
19447;BME280;9862;49.462;11.054;2022-10-16T03:33:32;97913.00;;;17.95;100.00
19447;BME280;9862;49.462;11.054;2022-10-16T03:36:18;97916.78;;;17.94;100.00
19447;BME280;9862;49.462;11.054;2022-10-16T03:39:03;97923.22;;;17.88;100.00
19447;BME280;9862;49.462;11.054;2022-10-16T03:41:49;97919.91;;;17.81;100.00
19447;BME280;9862;49.462;11.054;2022-10-16T03:44:34;97926.63;;;17.78;100.00
19447;BME280;9862;49.462;11.054;2022-10-16T03:47:20;97928.19;;;17.74;100.00
19447;BME280;9862;49.462;11.054;2022-10-16T03:50:08;97927.66;;;17.72;100.00
19447;BME280;9862;49.462;11.054;2022-10-16T03:52:53;97927.94;;;17.76;100.00
19447;BME280;9862;49.462;11.054;2022-10-16T03:55:41;97927.09;;;17.70;100.00
19447;BME280;9862;49.462;11.054;2022-10-16T03:58:28;97927.09;;;17.70;100.00
19447;BME280;9862;49.462;11.054;2022-10-16T04:01:13;97929.53;;;17.71;100.00
19447;BME280;9862;49.462;11.054;2022-10-16T04:03:59;97925.78;;;17.72;100.00
19447;BME280;9862;49.462;11.054;2022-10-16T04:06:44;97937.41;;;17.78;100.00
19447;BME280;9862;49.462;11.054;2022-10-16T04:09:29;97939.78;;;17.74;100.00
19447;BME280;9862;49.462;11.054;2022-10-16T04:12:15;97947.31;;;17.72;100.00
19447;BME280;9862;49.462;11.054;2022-10-16T04:15:02;97943.81;;;17.72;100.00
19447;BME280;9862;49.462;11.054;2022-10-16T04:17:47;97941.13;;;17.72;100.00
19447;BME280;9862;49.462;11.054;2022-10-16T04:20:33;97952.69;;;17.72;100.00
19447;BME280;9862;49.462;11.054;2022-10-16T04:23:18;97959.44;;;17.75;100.00
19447;BME280;9862;49.462;11.054;2022-10-16T04:26:03;97956.44;;;17.71;100.00
19447;BME280;9862;49.462;11.054;2022-10-16T04:28:48;97944.06;;;17.70;100.00
19447;BME280;9862;49.462;11.054;2022-10-16T04:31:35;97938.16;;;17.73;100.00
19447;BME280;9862;49.462;11.054;2022-10-16T04:34:20;97951.63;;;17.73;100.00
19447;BME280;9862;49.462;11.054;2022-10-16T04:37:06;97947.38;;;17.78;100.00
19447;BME280;9862;49.462;11.054;2022-10-16T04:39:51;97949.44;;;17.70;100.00
19447;BME280;9862;49.462;11.054;2022-10-16T04:42:36;97943.47;;;17.68;100.00
19447;BME280;9862;49.462;11.054;2022-10-16T04:45:22;97946.78;;;17.76;100.00
19447;BME280;9862;49.462;11.054;2022-10-16T04:48:08;97942.19;;;17.71;100.00
19447;BME280;9862;49.462;11.054;2022-10-16T04:50:54;97943.16;;;17.65;100.00
19447;BME280;9862;49.462;11.054;2022-10-16T04:53:39;97936.97;;;17.64;100.00
19447;BME280;9862;49.462;11.054;2022-10-16T04:56:24;97937.78;;;17.65;100.00
19447;BME280;9862;49.462;11.054;2022-10-16T04:59:10;97933.22;;;17.65;100.00
19447;BME280;9862;49.462;11.054;2022-10-16T05:01:55;97945.69;;;17.71;100.00
19447;BME280;9862;49.462;11.054;2022-10-16T05:04:42;97941.38;;;17.70;100.00
19447;BME280;9862;49.462;11.054;2022-10-16T05:07:27;97955.91;;;17.69;100.00
19447;BME280;9862;49.462;11.054;2022-10-16T05:10:13;97949.63;;;17.64;100.00
19447;BME280;9862;49.462;11.054;2022-10-16T05:12:58;97947.47;;;17.66;100.00
19447;BME280;9862;49.462;11.054;2022-10-16T05:15:47;97954.50;;;17.67;100.00
19447;BME280;9862;49.462;11.054;2022-10-16T05:18:32;97954.25;;;17.68;100.00
19447;BME280;9862;49.462;11.054;2022-10-16T05:21:19;97950.25;;;17.71;100.00
19447;BME280;9862;49.462;11.054;2022-10-16T05:24:05;97954.84;;;17.70;100.00
19447;BME280;9862;49.462;11.054;2022-10-16T05:26:50;97954.84;;;17.76;100.00
19447;BME280;9862;49.462;11.054;2022-10-16T05:29:36;97965.06;;;17.73;100.00
19447;BME280;9862;49.462;11.054;2022-10-16T05:32:21;97965.88;;;17.74;100.00
19447;BME280;9862;49.462;11.054;2022-10-16T05:35:07;97966.69;;;17.74;100.00
19447;BME280;9862;49.462;11.054;2022-10-16T05:37:54;97975.28;;;17.71;100.00
19447;BME280;9862;49.462;11.054;2022-10-16T05:40:39;97990.06;;;17.69;100.00
19447;BME280;9862;49.462;11.054;2022-10-16T05:43:24;97994.31;;;17.65;100.00
19447;BME280;9862;49.462;11.054;2022-10-16T05:46:10;98002.16;;;17.66;100.00
19447;BME280;9862;49.462;11.054;2022-10-16T05:48:55;98000.00;;;17.68;100.00
19447;BME280;9862;49.462;11.054;2022-10-16T05:51:40;98010.56;;;17.75;100.00
19447;BME280;9862;49.462;11.054;2022-10-16T05:54:27;98013.28;;;17.75;100.00
19447;BME280;9862;49.462;11.054;2022-10-16T05:57:12;98018.47;;;17.82;100.00
19447;BME280;9862;49.462;11.054;2022-10-16T05:59:57;98016.03;;;17.80;100.00
19447;BME280;9862;49.462;11.054;2022-10-16T06:02:43;98016.53;;;17.77;100.00
19447;BME280;9862;49.462;11.054;2022-10-16T06:05:28;98016.28;;;17.79;100.00
19447;BME280;9862;49.462;11.054;2022-10-16T06:08:13;98014.34;;;17.74;100.00
19447;BME280;9862;49.462;11.054;2022-10-16T06:11:04;98014.84;;;17.71;100.00
19447;BME280;9862;49.462;11.054;2022-10-16T06:13:50;98017.28;;;17.72;100.00
19447;BME280;9862;49.462;11.054;2022-10-16T06:16:36;98017.63;;;17.76;100.00
19447;BME280;9862;49.462;11.054;2022-10-16T06:19:22;98021.97;;;17.82;100.00
19447;BME280;9862;49.462;11.054;2022-10-16T06:22:08;98029.78;;;17.84;100.00
19447;BME280;9862;49.462;11.054;2022-10-16T06:24:53;98034.16;;;17.90;100.00
19447;BME280;9862;49.462;11.054;2022-10-16T06:27:40;98032.63;;;17.99;100.00
19447;BME280;9862;49.462;11.054;2022-10-16T06:30:25;98020.84;;;18.05;100.00
19447;BME280;9862;49.462;11.054;2022-10-16T06:33:11;98021.63;;;18.06;100.00
19447;BME280;9862;49.462;11.054;2022-10-16T06:36:00;98032.16;;;18.07;100.00
19447;BME280;9862;49.462;11.054;2022-10-16T06:38:46;98044.00;;;18.06;100.00
19447;BME280;9862;49.462;11.054;2022-10-16T06:41:31;98040.25;;;18.12;100.00
19447;BME280;9862;49.462;11.054;2022-10-16T06:44:18;98044.56;;;18.13;100.00
19447;BME280;9862;49.462;11.054;2022-10-16T06:47:03;98041.34;;;18.11;100.00
19447;BME280;9862;49.462;11.054;2022-10-16T06:49:49;98035.94;;;18.11;100.00
19447;BME280;9862;49.462;11.054;2022-10-16T06:52:34;98040.25;;;18.12;100.00
19447;BME280;9862;49.462;11.054;2022-10-16T06:55:19;98051.28;;;18.11;100.00
19447;BME280;9862;49.462;11.054;2022-10-16T06:58:04;98060.19;;;18.11;100.00
19447;BME280;9862;49.462;11.054;2022-10-16T07:00:56;98076.41;;;18.16;100.00
19447;BME280;9862;49.462;11.054;2022-10-16T07:03:43;98088.00;;;18.17;100.00
19447;BME280;9862;49.462;11.054;2022-10-16T07:06:31;98080.63;;;18.07;100.00
19447;BME280;9862;49.462;11.054;2022-10-16T07:09:17;98094.09;;;18.07;100.00
19447;BME280;9862;49.462;11.054;2022-10-16T07:12:02;98094.91;;;18.08;100.00
19447;BME280;9862;49.462;11.054;2022-10-16T07:14:47;98107.00;;;18.05;100.00
19447;BME280;9862;49.462;11.054;2022-10-16T07:17:34;98105.69;;;18.08;100.00
19447;BME280;9862;49.462;11.054;2022-10-16T07:20:19;98100.03;;;18.09;100.00
19447;BME280;9862;49.462;11.054;2022-10-16T07:23:05;98095.75;;;18.13;100.00
19447;BME280;9862;49.462;11.054;2022-10-16T07:25:53;98116.75;;;18.11;100.00
19447;BME280;9862;49.462;11.054;2022-10-16T07:28:39;98122.09;;;18.06;100.00
19447;BME280;9862;49.462;11.054;2022-10-16T07:31:25;98121.84;;;18.08;100.00
19447;BME280;9862;49.462;11.054;2022-10-16T07:34:14;98124.31;;;18.14;100.00
19447;BME280;9862;49.462;11.054;2022-10-16T07:36:59;98134.25;;;18.09;100.00
19447;BME280;9862;49.462;11.054;2022-10-16T07:39:45;98150.22;;;18.15;100.00
19447;BME280;9862;49.462;11.054;2022-10-16T07:42:30;98144.75;;;18.10;100.00
19447;BME280;9862;49.462;11.054;2022-10-16T07:45:15;98128.88;;;18.14;100.00
19447;BME280;9862;49.462;11.054;2022-10-16T07:48:01;98133.97;;;18.10;100.00
19447;BME280;9862;49.462;11.054;2022-10-16T07:50:48;98122.41;;;18.10;100.00
19447;BME280;9862;49.462;11.054;2022-10-16T07:53:33;98126.97;;;18.09;100.00
19447;BME280;9862;49.462;11.054;2022-10-16T07:56:19;98125.34;;;18.08;100.00
19447;BME280;9862;49.462;11.054;2022-10-16T07:59:04;98139.91;;;18.12;100.00
19447;BME280;9862;49.462;11.054;2022-10-16T08:01:50;98137.28;;;18.17;100.00
19447;BME280;9862;49.462;11.054;2022-10-16T08:04:35;98136.25;;;18.23;100.00
19447;BME280;9862;49.462;11.054;2022-10-16T08:07:21;98149.22;;;18.26;100.00
19447;BME280;9862;49.462;11.054;2022-10-16T08:10:11;98145.00;;;18.36;100.00
19447;BME280;9862;49.462;11.054;2022-10-16T08:13:00;98152.31;;;18.40;100.00
19447;BME280;9862;49.462;11.054;2022-10-16T08:15:46;98160.13;;;18.42;100.00
19447;BME280;9862;49.462;11.054;2022-10-16T08:18:31;98161.75;;;18.43;100.00
19447;BME280;9862;49.462;11.054;2022-10-16T08:21:18;98167.94;;;18.38;100.00
19447;BME280;9862;49.462;11.054;2022-10-16T08:24:05;98154.75;;;18.42;100.00
19447;BME280;9862;49.462;11.054;2022-10-16T08:26:53;98161.00;;;18.47;100.00
19447;BME280;9862;49.462;11.054;2022-10-16T08:29:38;98160.53;;;18.55;100.00
19447;BME280;9862;49.462;11.054;2022-10-16T08:32:23;98161.34;;;18.56;100.00
19447;BME280;9862;49.462;11.054;2022-10-16T08:35:09;98160.31;;;18.62;100.00
19447;BME280;9862;49.462;11.054;2022-10-16T08:37:55;98167.66;;;18.67;100.00
19447;BME280;9862;49.462;11.054;2022-10-16T08:40:42;98165.25;;;18.70;100.00
19447;BME280;9862;49.462;11.054;2022-10-16T08:43:38;98174.25;;;18.81;100.00
19447;BME280;9862;49.462;11.054;2022-10-16T08:46:37;98191.72;;;18.73;100.00
19447;BME280;9862;49.462;11.054;2022-10-16T08:49:26;98178.47;;;18.72;100.00
19447;BME280;9862;49.462;11.054;2022-10-16T08:52:13;98184.94;;;18.71;100.00
19447;BME280;9862;49.462;11.054;2022-10-16T08:54:59;98185.28;;;18.79;100.00
19447;BME280;9862;49.462;11.054;2022-10-16T08:57:45;98186.38;;;18.78;100.00
19447;BME280;9862;49.462;11.054;2022-10-16T09:00:30;98184.78;;;18.82;100.00
19447;BME280;9862;49.462;11.054;2022-10-16T09:03:26;98184.81;;;18.87;100.00
19447;BME280;9862;49.462;11.054;2022-10-16T09:06:29;98185.94;;;18.92;100.00
19447;BME280;9862;49.462;11.054;2022-10-16T09:09:35;98199.44;;;18.97;100.00
19447;BME280;9862;49.462;11.054;2022-10-16T09:12:29;98196.28;;;19.05;100.00
19447;BME280;9862;49.462;11.054;2022-10-16T09:15:25;98195.81;;;19.13;100.00
19447;BME280;9862;49.462;11.054;2022-10-16T09:18:18;98192.84;;;19.20;100.00
19447;BME280;9862;49.462;11.054;2022-10-16T09:21:09;98197.22;;;19.26;100.00
19447;BME280;9862;49.462;11.054;2022-10-16T09:23:59;98210.75;;;19.31;100.00
19447;BME280;9862;49.462;11.054;2022-10-16T09:26:46;98210.72;;;19.26;100.00
19447;BME280;9862;49.462;11.054;2022-10-16T09:29:31;98215.03;;;19.22;100.00
19447;BME280;9862;49.462;11.054;2022-10-16T09:32:20;98224.75;;;19.23;100.00
19447;BME280;9862;49.462;11.054;2022-10-16T09:35:13;98221.25;;;19.27;100.00
19447;BME280;9862;49.462;11.054;2022-10-16T09:37:58;98218.81;;;19.26;100.00
19447;BME280;9862;49.462;11.054;2022-10-16T09:40:44;98228.75;;;19.20;100.00
19447;BME280;9862;49.462;11.054;2022-10-16T09:43:34;98228.72;;;19.15;100.00
19447;BME280;9862;49.462;11.054;2022-10-16T09:46:25;98235.94;;;19.09;100.00
19447;BME280;9862;49.462;11.054;2022-10-16T09:49:21;98234.03;;;19.05;100.00
19447;BME280;9862;49.462;11.054;2022-10-16T09:52:12;98227.03;;;19.04;100.00
19447;BME280;9862;49.462;11.054;2022-10-16T09:54:59;98224.06;;;19.05;100.00
19447;BME280;9862;49.462;11.054;2022-10-16T09:57:50;98216.25;;;19.09;100.00
19447;BME280;9862;49.462;11.054;2022-10-16T10:00:35;98223.28;;;19.10;100.00
19447;BME280;9862;49.462;11.054;2022-10-16T10:03:34;98239.50;;;19.15;100.00
19447;BME280;9862;49.462;11.054;2022-10-16T10:06:24;98244.44;;;19.23;100.00
19447;BME280;9862;49.462;11.054;2022-10-16T10:09:20;98244.25;;;19.35;100.00
19447;BME280;9862;49.462;11.054;2022-10-16T10:12:17;98236.47;;;19.49;100.00
19447;BME280;9862;49.462;11.054;2022-10-16T10:15:05;98233.09;;;19.63;100.00
19447;BME280;9862;49.462;11.054;2022-10-16T10:17:53;98236.66;;;19.74;100.00
19447;BME280;9862;49.462;11.054;2022-10-16T10:20:39;98231.53;;;19.78;100.00
19447;BME280;9862;49.462;11.054;2022-10-16T10:23:28;98238.31;;;19.80;100.00
19447;BME280;9862;49.462;11.054;2022-10-16T10:26:16;98251.06;;;19.90;100.00
19447;BME280;9862;49.462;11.054;2022-10-16T10:29:06;98254.28;;;19.87;100.00
19447;BME280;9862;49.462;11.054;2022-10-16T10:32:02;98248.91;;;19.92;100.00
19447;BME280;9862;49.462;11.054;2022-10-16T10:35:07;98253.19;;;19.88;100.00
19447;BME280;9862;49.462;11.054;2022-10-16T10:38:05;98247.56;;;19.94;100.00
19447;BME280;9862;49.462;11.054;2022-10-16T10:41:01;98250.31;;;19.99;100.00
19447;BME280;9862;49.462;11.054;2022-10-16T10:44:01;98245.97;;;20.04;100.00
19447;BME280;9862;49.462;11.054;2022-10-16T10:46:51;98251.41;;;20.14;100.00
19447;BME280;9862;49.462;11.054;2022-10-16T10:49:45;98249.03;;;20.22;100.00
19447;BME280;9862;49.462;11.054;2022-10-16T10:52:51;98242.53;;;20.23;100.00
19447;BME280;9862;49.462;11.054;2022-10-16T10:55:40;98252.56;;;20.28;100.00
19447;BME280;9862;49.462;11.054;2022-10-16T10:58:48;98251.47;;;20.29;100.00
19447;BME280;9862;49.462;11.054;2022-10-16T11:01:41;98255.00;;;20.35;100.00
19447;BME280;9862;49.462;11.054;2022-10-16T11:04:47;98260.13;;;20.31;100.00
19447;BME280;9862;49.462;11.054;2022-10-16T11:07:37;98263.38;;;20.33;100.00
19447;BME280;9862;49.462;11.054;2022-10-16T11:10:27;98265.53;;;20.31;100.00
19447;BME280;9862;49.462;11.054;2022-10-16T11:13:23;98261.22;;;20.35;100.00
19447;BME280;9862;49.462;11.054;2022-10-16T11:16:16;98258.53;;;20.40;100.00
19447;BME280;9862;49.462;11.054;2022-10-16T11:19:11;98260.75;;;20.53;100.00
19447;BME280;9862;49.462;11.054;2022-10-16T11:22:03;98258.34;;;20.57;100.00
19447;BME280;9862;49.462;11.054;2022-10-16T11:24:53;98270.50;;;20.60;100.00
19447;BME280;9862;49.462;11.054;2022-10-16T11:27:41;98260.25;;;20.67;100.00
19447;BME280;9862;49.462;11.054;2022-10-16T11:30:30;98268.38;;;20.72;100.00
19447;BME280;9862;49.462;11.054;2022-10-16T11:33:29;98268.38;;;20.72;100.00
19447;BME280;9862;49.462;11.054;2022-10-16T11:36:19;98267.81;;;20.70;100.00
19447;BME280;9862;49.462;11.054;2022-10-16T11:39:16;98267.81;;;20.75;100.00
19447;BME280;9862;49.462;11.054;2022-10-16T11:42:09;98265.69;;;20.77;100.00
19447;BME280;9862;49.462;11.054;2022-10-16T11:45:00;98264.59;;;20.83;100.00
19447;BME280;9862;49.462;11.054;2022-10-16T11:47:54;98265.94;;;20.91;100.00
19447;BME280;9862;49.462;11.054;2022-10-16T11:50:50;98271.91;;;20.98;100.00
19447;BME280;9862;49.462;11.054;2022-10-16T11:53:45;98270.56;;;21.05;100.00
19447;BME280;9862;49.462;11.054;2022-10-16T11:56:37;98275.97;;;21.10;100.00
19447;BME280;9862;49.462;11.054;2022-10-16T11:59:29;98278.69;;;21.15;100.00
19447;BME280;9862;49.462;11.054;2022-10-16T12:02:30;98273.25;;;21.21;100.00
19447;BME280;9862;49.462;11.054;2022-10-16T12:05:25;98280.34;;;21.27;100.00
19447;BME280;9862;49.462;11.054;2022-10-16T12:08:16;98263.00;;;21.33;100.00
19447;BME280;9862;49.462;11.054;2022-10-16T12:11:09;98277.03;;;21.60;100.00
19447;BME280;9862;49.462;11.054;2022-10-16T12:14:34;98276.78;;;21.62;100.00
19447;BME280;9862;49.462;11.054;2022-10-16T12:17:25;98272.72;;;21.49;100.00
19447;BME280;9862;49.462;11.054;2022-10-16T12:20:24;98274.66;;;21.43;100.00
19447;BME280;9862;49.462;11.054;2022-10-16T12:23:20;98269.47;;;21.47;100.00
19447;BME280;9862;49.462;11.054;2022-10-16T12:26:06;98261.03;;;21.69;100.00
19447;BME280;9862;49.462;11.054;2022-10-16T12:28:51;98258.59;;;21.67;100.00
19447;BME280;9862;49.462;11.054;2022-10-16T12:31:38;98258.84;;;21.81;100.00
19447;BME280;9862;49.462;11.054;2022-10-16T12:34:32;98271.78;;;21.99;100.00
19447;BME280;9862;49.462;11.054;2022-10-16T12:37:24;98272.09;;;21.93;100.00
19447;BME280;9862;49.462;11.054;2022-10-16T12:40:22;98265.13;;;21.71;100.00
19447;BME280;9862;49.462;11.054;2022-10-16T12:43:26;98266.75;;;21.62;100.00
19447;BME280;9862;49.462;11.054;2022-10-16T12:46:24;98260.78;;;21.65;100.00
19447;BME280;9862;49.462;11.054;2022-10-16T12:49:23;98256.94;;;21.77;100.00
19447;BME280;9862;49.462;11.054;2022-10-16T12:52:25;98259.97;;;21.65;100.00
19447;BME280;9862;49.462;11.054;2022-10-16T12:55:17;98266.66;;;21.93;100.00
19447;BME280;9862;49.462;11.054;2022-10-16T12:58:18;98267.75;;;21.87;100.00
19447;BME280;9862;49.462;11.054;2022-10-16T13:01:13;98270.75;;;21.85;100.00
19447;BME280;9862;49.462;11.054;2022-10-16T13:04:35;98267.78;;;21.82;100.00
19447;BME280;9862;49.462;11.054;2022-10-16T13:07:36;98268.31;;;21.84;100.00
19447;BME280;9862;49.462;11.054;2022-10-16T13:10:31;98265.56;;;21.94;100.00
19447;BME280;9862;49.462;11.054;2022-10-16T13:13:38;98272.84;;;22.04;100.00
19447;BME280;9862;49.462;11.054;2022-10-16T13:16:32;98275.75;;;22.33;100.00
19447;BME280;9862;49.462;11.054;2022-10-16T13:19:25;98271.59;;;22.50;100.00
19447;BME280;9862;49.462;11.054;2022-10-16T13:22:17;98278.72;;;22.80;100.00
19447;BME280;9862;49.462;11.054;2022-10-16T13:25:18;98282.34;;;23.10;100.00
19447;BME280;9862;49.462;11.054;2022-10-16T13:28:07;98280.25;;;23.31;100.00
19447;BME280;9862;49.462;11.054;2022-10-16T13:30:55;98275.63;;;23.31;100.00
19447;BME280;9862;49.462;11.054;2022-10-16T13:33:46;98268.69;;;23.20;100.00
19447;BME280;9862;49.462;11.054;2022-10-16T13:36:42;98275.91;;;23.01;100.00
19447;BME280;9862;49.462;11.054;2022-10-16T13:39:29;98276.53;;;22.82;100.00
19447;BME280;9862;49.462;11.054;2022-10-16T13:42:20;98281.44;;;22.80;100.00
19447;BME280;9862;49.462;11.054;2022-10-16T13:45:19;98283.47;;;23.04;100.00
19447;BME280;9862;49.462;11.054;2022-10-16T13:48:06;98283.69;;;23.41;100.00
19447;BME280;9862;49.462;11.054;2022-10-16T13:51:05;98286.03;;;23.82;100.00
19447;BME280;9862;49.462;11.054;2022-10-16T13:53:51;98289.81;;;23.86;100.00
19447;BME280;9862;49.462;11.054;2022-10-16T13:56:38;98280.78;;;23.91;100.00
19447;BME280;9862;49.462;11.054;2022-10-16T13:59:25;98279.81;;;24.06;100.00
19447;BME280;9862;49.462;11.054;2022-10-16T14:02:22;98280.25;;;24.37;100.00
19447;BME280;9862;49.462;11.054;2022-10-16T14:05:10;98279.22;;;24.33;100.00
19447;BME280;9862;49.462;11.054;2022-10-16T14:07:57;98290.84;;;24.38;100.00
19447;BME280;9862;49.462;11.054;2022-10-16T14:10:47;98287.31;;;24.38;100.00
19447;BME280;9862;49.462;11.054;2022-10-16T14:13:37;98281.69;;;24.72;100.00
19447;BME280;9862;49.462;11.054;2022-10-16T14:16:24;98280.94;;;25.04;100.00
19447;BME280;9862;49.462;11.054;2022-10-16T14:19:18;98288.25;;;25.41;100.00
19447;BME280;9862;49.462;11.054;2022-10-16T14:22:22;98285.00;;;25.72;100.00
19447;BME280;9862;49.462;11.054;2022-10-16T14:25:23;98277.84;;;25.89;100.00
19447;BME280;9862;49.462;11.054;2022-10-16T14:28:16;98274.09;;;26.27;100.00
19447;BME280;9862;49.462;11.054;2022-10-16T14:31:16;98264.06;;;26.49;100.00
19447;BME280;9862;49.462;11.054;2022-10-16T14:34:24;98272.28;;;26.22;100.00
19447;BME280;9862;49.462;11.054;2022-10-16T14:37:24;98287.13;;;25.42;100.00
19447;BME280;9862;49.462;11.054;2022-10-16T14:40:14;98279.47;;;24.74;100.00
19447;BME280;9862;49.462;11.054;2022-10-16T14:43:00;98283.66;;;24.23;100.00
19447;BME280;9862;49.462;11.054;2022-10-16T14:45:50;98287.66;;;23.83;100.00